createdAt,value
2022-10-16T00:01:08.514Z,16.05
2022-10-16T00:03:11.769Z,16.05
2022-10-16T00:05:14.365Z,16.05
2022-10-16T00:07:16.963Z,16.03
2022-10-16T00:09:19.575Z,16.03
2022-10-16T00:11:25.768Z,16.02
2022-10-16T00:13:28.353Z,16.01
2022-10-16T00:15:30.976Z,15.99
2022-10-16T00:17:34.135Z,15.98
2022-10-16T00:19:36.773Z,15.96
2022-10-16T00:21:39.444Z,15.95
2022-10-16T00:23:42.167Z,15.91
2022-10-16T00:25:44.782Z,15.90
2022-10-16T00:27:48.657Z,15.87
2022-10-16T00:29:52.183Z,15.88
2022-10-16T00:31:54.784Z,15.87
2022-10-16T00:33:57.829Z,15.85
2022-10-16T00:36:00.621Z,15.86
2022-10-16T00:38:03.257Z,15.83
2022-10-16T00:40:06.721Z,15.81
2022-10-16T00:42:13.306Z,15.80
2022-10-16T00:44:46.772Z,15.76
2022-10-16T00:46:49.418Z,15.74
2022-10-16T00:48:57.636Z,15.73
2022-10-16T00:51:00.725Z,15.72
2022-10-16T00:53:04.884Z,15.71
2022-10-16T00:55:08.722Z,15.71
2022-10-16T00:57:11.399Z,15.69
2022-10-16T00:59:18.039Z,15.70
2022-10-16T01:01:22.376Z,15.68
2022-10-16T01:03:28.848Z,15.66
2022-10-16T01:05:38.244Z,15.66
2022-10-16T01:07:55.435Z,15.65
2022-10-16T01:10:09.456Z,15.65
2022-10-16T01:12:17.238Z,15.65
2022-10-16T01:14:27.408Z,15.66
2022-10-16T01:16:41.441Z,15.66
2022-10-16T01:18:46.959Z,15.67
2022-10-16T01:20:55.758Z,15.67
2022-10-16T01:23:06.284Z,15.67
2022-10-16T01:25:18.589Z,15.67
2022-10-16T01:27:27.855Z,15.66
2022-10-16T01:29:36.674Z,15.66
2022-10-16T01:31:43.179Z,15.66
2022-10-16T01:33:49.569Z,15.65
2022-10-16T01:35:56.461Z,15.64
2022-10-16T01:38:04.597Z,15.62
2022-10-16T01:40:11.691Z,15.61
2022-10-16T01:42:18.999Z,15.60
2022-10-16T01:44:27.672Z,15.59
2022-10-16T01:46:32.583Z,15.57
2022-10-16T01:48:37.211Z,15.56
2022-10-16T01:50:43.620Z,15.57
2022-10-16T01:52:51.680Z,15.56
2022-10-16T01:54:57.235Z,15.56
2022-10-16T01:57:01.291Z,15.55
2022-10-16T01:59:07.496Z,15.54
2022-10-16T02:01:13.770Z,15.54
2022-10-16T02:03:20.156Z,15.51
2022-10-16T02:05:27.804Z,15.53
2022-10-16T02:07:30.471Z,15.52
2022-10-16T02:09:35.029Z,15.51
2022-10-16T02:11:37.599Z,15.49
2022-10-16T02:13:46.151Z,15.48
2022-10-16T02:15:48.760Z,15.46
2022-10-16T02:17:52.667Z,15.48
2022-10-16T02:19:57.144Z,15.46
2022-10-16T02:25:30.826Z,15.41
2022-10-16T02:27:40.721Z,15.39
2022-10-16T02:32:03.430Z,15.39
2022-10-16T02:34:08.745Z,15.41
2022-10-16T02:36:11.997Z,15.43
2022-10-16T02:38:16.136Z,15.42
2022-10-16T02:40:22.853Z,15.42
2022-10-16T02:42:34.805Z,15.42
2022-10-16T02:44:37.372Z,15.39
2022-10-16T02:46:39.932Z,15.39
2022-10-16T02:48:42.606Z,15.41
2022-10-16T02:50:46.571Z,15.37
2022-10-16T02:52:49.173Z,15.39
2022-10-16T02:54:51.725Z,15.38
2022-10-16T02:56:54.339Z,15.35
2022-10-16T02:58:56.922Z,15.35
2022-10-16T03:00:59.652Z,15.34
2022-10-16T03:03:02.291Z,15.33
2022-10-16T03:05:05.329Z,15.31
2022-10-16T03:07:09.517Z,15.30
2022-10-16T03:09:12.066Z,15.31
2022-10-16T03:11:14.683Z,15.30
2022-10-16T03:13:17.267Z,15.27
2022-10-16T03:15:19.845Z,15.27
2022-10-16T03:17:22.382Z,15.28
2022-10-16T03:19:25.034Z,15.26
2022-10-16T03:21:27.653Z,15.25
2022-10-16T03:23:31.836Z,15.25
2022-10-16T03:25:34.414Z,15.24
2022-10-16T03:27:37.239Z,15.23
2022-10-16T03:29:39.794Z,15.25
2022-10-16T03:31:42.605Z,15.24
2022-10-16T03:33:45.174Z,15.23
2022-10-16T03:35:53.955Z,15.22
2022-10-16T03:37:57.504Z,15.20
2022-10-16T03:40:01.580Z,15.17
2022-10-16T03:42:04.517Z,15.16
2022-10-16T03:44:07.326Z,15.15
2022-10-16T03:46:09.897Z,15.14
2022-10-16T03:48:13.549Z,15.17
2022-10-16T03:50:16.359Z,15.15
2022-10-16T03:54:23.046Z,15.11
2022-10-16T03:56:26.976Z,15.13
2022-10-16T03:58:29.596Z,15.10
2022-10-16T04:00:32.174Z,15.11
2022-10-16T04:02:34.800Z,15.10
2022-10-16T04:04:37.754Z,15.09
2022-10-16T04:06:40.313Z,15.12
2022-10-16T04:08:44.471Z,15.13
2022-10-16T04:10:47.829Z,15.12
2022-10-16T04:12:51.777Z,15.20
2022-10-16T04:14:54.365Z,15.17
2022-10-16T04:16:56.928Z,15.17
2022-10-16T04:18:59.544Z,15.17
2022-10-16T04:21:04.848Z,15.18
2022-10-16T04:23:07.487Z,15.15
2022-10-16T04:25:10.999Z,15.13
2022-10-16T04:27:13.544Z,15.10
2022-10-16T04:29:17.467Z,15.09
2022-10-16T04:31:20.249Z,15.07
2022-10-16T04:33:22.906Z,15.07
2022-10-16T04:35:25.466Z,15.08
2022-10-16T04:37:29.204Z,15.08
2022-10-16T04:39:32.003Z,15.06
2022-10-16T04:41:34.558Z,15.06
2022-10-16T04:43:37.185Z,15.07
2022-10-16T04:45:41.086Z,15.06
2022-10-16T04:47:43.695Z,15.02
2022-10-16T04:49:46.243Z,15.02
2022-10-16T04:51:48.820Z,15.05
2022-10-16T04:53:51.403Z,15.00
2022-10-16T04:55:53.989Z,15.01
2022-10-16T04:57:56.585Z,14.99
2022-10-16T04:59:59.137Z,15.01
2022-10-16T05:02:03.073Z,15.00
2022-10-16T05:04:05.641Z,15.00
2022-10-16T05:06:08.532Z,14.97
2022-10-16T05:08:11.185Z,14.97
2022-10-16T05:10:13.815Z,14.96
2022-10-16T05:12:16.615Z,14.93
2022-10-16T05:14:19.373Z,14.93
2022-10-16T05:16:22.003Z,14.89
2022-10-16T05:18:25.972Z,14.89
2022-10-16T05:20:28.615Z,14.88
2022-10-16T05:22:31.371Z,14.88
2022-10-16T05:24:33.937Z,14.87
2022-10-16T05:26:36.574Z,14.86
2022-10-16T05:28:39.291Z,14.87
2022-10-16T05:30:41.852Z,14.87
2022-10-16T05:32:48.535Z,14.86
2022-10-16T05:34:52.805Z,14.87
2022-10-16T05:36:55.459Z,14.84
2022-10-16T05:38:58.100Z,14.83
2022-10-16T05:41:00.680Z,14.83
2022-10-16T05:43:03.225Z,14.83
2022-10-16T05:45:06.988Z,14.83
2022-10-16T05:47:09.616Z,14.83
2022-10-16T05:49:12.217Z,14.78
2022-10-16T05:51:16.758Z,14.79
2022-10-16T05:53:26.317Z,14.77
2022-10-16T05:55:28.890Z,14.77
2022-10-16T05:57:32.159Z,14.87
2022-10-16T05:59:34.760Z,14.79
2022-10-16T06:01:37.367Z,14.77
2022-10-16T06:03:40.144Z,14.77
2022-10-16T06:05:43.788Z,14.77
2022-10-16T06:07:47.730Z,14.78
2022-10-16T06:09:50.875Z,14.77
2022-10-16T06:11:53.449Z,14.77
2022-10-16T06:13:58.166Z,14.78
2022-10-16T06:16:01.770Z,14.78
2022-10-16T06:18:07.604Z,14.77
2022-10-16T06:20:11.012Z,14.79
2022-10-16T06:22:13.642Z,14.79
2022-10-16T06:24:17.566Z,14.77
2022-10-16T06:26:22.007Z,14.77
2022-10-16T06:28:24.641Z,14.77
2022-10-16T06:30:29.745Z,14.79
2022-10-16T06:32:32.336Z,14.79
2022-10-16T06:34:35.335Z,14.78
2022-10-16T06:36:38.350Z,14.78
2022-10-16T06:38:41.024Z,14.80
2022-10-16T06:40:44.948Z,14.82
2022-10-16T06:42:47.549Z,14.84
2022-10-16T06:44:50.160Z,14.85
2022-10-16T06:46:53.152Z,14.89
2022-10-16T06:48:55.768Z,14.92
2022-10-16T06:51:00.154Z,14.98
2022-10-16T06:53:02.785Z,15.04
2022-10-16T06:55:08.125Z,15.07
2022-10-16T06:57:12.063Z,15.09
2022-10-16T06:59:14.659Z,15.13
2022-10-16T07:01:19.400Z,15.15
2022-10-16T07:03:21.966Z,15.18
2022-10-16T07:05:24.587Z,15.20
2022-10-16T07:07:27.596Z,15.24
2022-10-16T07:11:38.828Z,15.28
2022-10-16T07:13:44.487Z,15.31
2022-10-16T07:15:47.077Z,15.35
2022-10-16T07:17:49.639Z,15.37
2022-10-16T07:19:54.115Z,15.41
2022-10-16T07:21:57.885Z,15.48
2022-10-16T07:24:02.064Z,15.42
2022-10-16T07:26:06.109Z,15.44
2022-10-16T07:28:08.727Z,15.47
2022-10-16T07:30:13.024Z,15.48
2022-10-16T07:32:15.648Z,15.51
2022-10-16T07:34:20.475Z,15.54
2022-10-16T07:36:23.495Z,15.61
2022-10-16T07:38:26.133Z,15.60
2022-10-16T07:40:28.987Z,15.62
2022-10-16T07:42:31.562Z,15.62
2022-10-16T07:44:34.197Z,15.60
2022-10-16T07:46:38.277Z,15.65
2022-10-16T07:48:40.866Z,15.68
2022-10-16T07:50:43.670Z,15.73
2022-10-16T07:52:46.239Z,15.77
2022-10-16T07:54:48.922Z,15.82
2022-10-16T07:56:51.512Z,15.85
2022-10-16T07:58:54.745Z,15.91
2022-10-16T08:00:57.672Z,15.97
2022-10-16T08:03:01.973Z,16.01
2022-10-16T08:05:04.929Z,16.03
2022-10-16T08:07:08.914Z,16.04
2022-10-16T08:09:11.568Z,16.06
2022-10-16T08:11:15.149Z,16.06
2022-10-16T08:13:17.748Z,16.09
2022-10-16T08:15:20.928Z,16.13
2022-10-16T08:17:23.965Z,16.15
2022-10-16T08:19:28.024Z,16.18
2022-10-16T08:21:30.648Z,16.22
2022-10-16T08:23:34.099Z,16.22
2022-10-16T08:25:37.792Z,16.24
2022-10-16T08:27:40.484Z,16.28
2022-10-16T08:29:43.090Z,16.32
2022-10-16T08:31:45.750Z,16.39
2022-10-16T08:33:48.866Z,16.44
2022-10-16T08:35:55.643Z,16.49
2022-10-16T08:37:58.260Z,16.52
2022-10-16T08:40:03.280Z,16.53
2022-10-16T08:42:30.139Z,16.56
2022-10-16T08:44:46.117Z,16.58
2022-10-16T08:46:55.173Z,16.59
2022-10-16T08:49:00.869Z,16.62
2022-10-16T08:51:06.945Z,16.65
2022-10-16T08:53:17.572Z,16.69
2022-10-16T08:55:34.317Z,16.73
2022-10-16T08:57:36.957Z,16.75
2022-10-16T08:59:39.518Z,16.82
2022-10-16T09:01:43.780Z,16.86
2022-10-16T09:04:09.644Z,16.90
2022-10-16T09:06:27.914Z,16.93
2022-10-16T09:08:42.448Z,16.97
2022-10-16T09:10:56.641Z,17.02
2022-10-16T09:13:10.644Z,17.04
2022-10-16T09:15:24.826Z,17.07
2022-10-16T09:17:47.708Z,17.16
2022-10-16T09:19:55.548Z,17.12
2022-10-16T09:22:01.900Z,17.14
2022-10-16T09:24:13.911Z,17.17
2022-10-16T09:26:19.016Z,17.16
2022-10-16T09:28:22.269Z,17.13
2022-10-16T09:30:28.654Z,17.13
2022-10-16T09:32:32.076Z,17.16
2022-10-16T09:34:37.921Z,17.19
2022-10-16T09:36:43.954Z,17.22
2022-10-16T09:38:47.860Z,17.25
2022-10-16T09:40:58.972Z,17.27
2022-10-16T09:43:18.986Z,17.31
2022-10-16T09:45:24.849Z,17.35
2022-10-16T09:47:30.188Z,17.37
2022-10-16T09:49:33.227Z,17.37
2022-10-16T09:51:37.793Z,17.37
2022-10-16T09:53:43.330Z,17.36
2022-10-16T09:55:54.892Z,17.37
2022-10-16T09:57:57.748Z,17.38
2022-10-16T10:00:00.883Z,17.35
2022-10-16T10:02:12.439Z,17.37
2022-10-16T10:04:15.398Z,17.37
2022-10-16T10:06:25.196Z,17.37
2022-10-16T10:08:27.807Z,17.39
2022-10-16T10:10:32.213Z,17.39
2022-10-16T10:12:37.546Z,17.39
2022-10-16T10:14:43.860Z,17.38
2022-10-16T10:16:46.673Z,17.36
2022-10-16T10:19:00.198Z,17.36
2022-10-16T10:21:06.130Z,17.38
2022-10-16T10:23:23.258Z,17.44
2022-10-16T10:25:51.793Z,17.47
2022-10-16T10:28:20.184Z,17.54
2022-10-16T10:30:27.236Z,17.59
2022-10-16T10:32:40.175Z,17.65
2022-10-16T10:35:05.025Z,17.72
2022-10-16T10:37:25.328Z,17.76
2022-10-16T10:39:34.691Z,17.81
2022-10-16T10:42:16.584Z,17.90
2022-10-16T10:44:32.610Z,18.02
2022-10-16T10:46:40.907Z,18.54
2022-10-16T10:48:59.017Z,18.23
2022-10-16T10:51:11.303Z,18.27
2022-10-16T10:53:23.874Z,18.32
2022-10-16T10:55:35.661Z,18.27
2022-10-16T10:57:43.662Z,18.51
2022-10-16T11:00:11.442Z,18.75
2022-10-16T11:02:24.223Z,18.91
2022-10-16T11:04:42.818Z,18.82
2022-10-16T11:06:49.527Z,18.81
2022-10-16T11:08:58.976Z,19.16
2022-10-16T11:11:05.454Z,19.12
2022-10-16T11:13:18.115Z,19.20
2022-10-16T11:15:27.613Z,19.12
2022-10-16T11:17:33.802Z,19.14
2022-10-16T11:19:43.565Z,19.04
2022-10-16T11:21:52.344Z,18.97
2022-10-16T11:23:59.309Z,18.94
2022-10-16T11:26:05.577Z,18.90
2022-10-16T11:28:14.289Z,19.19
2022-10-16T11:30:22.140Z,19.09
2022-10-16T11:32:31.074Z,19.10
2022-10-16T11:34:39.600Z,19.31
2022-10-16T11:36:46.953Z,19.18
2022-10-16T11:38:57.243Z,19.38
2022-10-16T11:41:04.218Z,19.30
2022-10-16T11:43:15.997Z,19.26
2022-10-16T11:45:30.450Z,19.28
2022-10-16T11:50:04.304Z,19.45
2022-10-16T11:54:24.669Z,19.51
2022-10-16T11:56:27.612Z,19.46
2022-10-16T11:58:35.325Z,19.45
2022-10-16T12:00:43.169Z,19.52
2022-10-16T12:02:58.392Z,19.52
2022-10-16T12:05:14.379Z,19.65
2022-10-16T12:07:21.553Z,19.78
2022-10-16T12:09:28.477Z,19.78
2022-10-16T12:11:37.783Z,19.93
2022-10-16T12:13:45.339Z,19.87
2022-10-16T12:15:58.827Z,19.82
2022-10-16T12:18:03.706Z,19.77
2022-10-16T12:20:23.953Z,19.89
2022-10-16T12:22:30.982Z,19.82
2022-10-16T12:24:37.300Z,19.81
2022-10-16T12:26:42.759Z,19.78
2022-10-16T12:28:49.422Z,19.73
2022-10-16T12:30:56.508Z,19.73
2022-10-16T12:33:02.375Z,19.72
2022-10-16T12:35:18.844Z,19.70
2022-10-16T12:37:25.441Z,19.71
2022-10-16T12:39:30.353Z,19.76
2022-10-16T12:41:35.544Z,19.76
2022-10-16T12:43:43.203Z,19.76
2022-10-16T12:45:47.313Z,19.77
2022-10-16T12:47:52.302Z,19.77
2022-10-16T12:49:56.496Z,19.87
2022-10-16T12:52:00.700Z,19.87
2022-10-16T12:54:05.398Z,20.04
2022-10-16T12:56:24.213Z,20.06
2022-10-16T12:58:48.757Z,20.20
2022-10-16T13:00:58.454Z,20.23
2022-10-16T13:03:42.207Z,20.49
2022-10-16T13:05:58.062Z,20.64
2022-10-16T13:08:14.388Z,20.74
2022-10-16T13:10:27.469Z,20.88
2022-10-16T13:12:55.285Z,20.89
2022-10-16T13:15:21.556Z,20.94
2022-10-16T13:17:32.822Z,21.00
2022-10-16T13:19:42.270Z,21.05
2022-10-16T13:21:55.469Z,21.08
2022-10-16T13:24:05.361Z,21.18
2022-10-16T13:26:21.626Z,21.12
2022-10-16T13:28:30.419Z,21.11
2022-10-16T13:30:40.546Z,21.09
2022-10-16T13:32:48.094Z,21.09
2022-10-16T13:34:51.498Z,21.06
2022-10-16T13:36:55.320Z,21.12
2022-10-16T13:39:14.398Z,21.19
2022-10-16T13:41:19.349Z,21.20
2022-10-16T13:43:25.611Z,21.21
2022-10-16T13:45:28.218Z,21.24
2022-10-16T13:47:32.103Z,21.29
2022-10-16T13:49:34.926Z,21.34
2022-10-16T13:51:37.561Z,21.41
2022-10-16T13:53:41.314Z,21.46
2022-10-16T13:55:45.279Z,21.53
2022-10-16T13:57:48.367Z,21.56
2022-10-16T13:59:51.081Z,21.60
2022-10-16T14:01:56.012Z,21.62
2022-10-16T14:04:04.951Z,21.62
2022-10-16T14:06:14.618Z,21.69
2022-10-16T14:08:17.392Z,21.69
2022-10-16T14:10:26.540Z,21.69
2022-10-16T14:12:31.037Z,21.63
2022-10-16T14:14:42.043Z,21.58
2022-10-16T14:16:45.605Z,21.52
2022-10-16T14:18:51.412Z,21.47
2022-10-16T14:20:55.042Z,21.42
2022-10-16T14:23:03.240Z,21.34
2022-10-16T14:25:23.531Z,21.22
2022-10-16T14:27:32.895Z,21.13
2022-10-16T14:29:36.573Z,21.01
2022-10-16T14:31:40.745Z,20.92
2022-10-16T14:33:43.483Z,20.86
2022-10-16T14:35:46.275Z,20.79
2022-10-16T14:37:48.886Z,20.74
2022-10-16T14:39:52.052Z,20.71
2022-10-16T14:41:59.157Z,20.66
2022-10-16T14:44:06.141Z,20.65
2022-10-16T14:46:14.195Z,20.60
2022-10-16T14:48:20.736Z,20.55
2022-10-16T14:50:23.840Z,20.51
2022-10-16T14:52:26.619Z,20.48
2022-10-16T14:54:29.191Z,20.46
2022-10-16T14:56:35.865Z,20.44
2022-10-16T14:58:38.451Z,20.43
2022-10-16T15:00:42.365Z,20.42
2022-10-16T15:02:45.375Z,20.40
2022-10-16T15:04:48.185Z,20.39
2022-10-16T15:06:51.050Z,20.36
2022-10-16T15:08:53.599Z,20.34
2022-10-16T15:10:59.020Z,20.33
2022-10-16T15:13:01.589Z,20.31
2022-10-16T15:15:12.179Z,20.33
2022-10-16T15:17:17.501Z,20.31
2022-10-16T15:19:22.684Z,20.30
2022-10-16T15:21:29.252Z,20.26
2022-10-16T15:23:31.913Z,20.23
2022-10-16T15:25:37.652Z,20.21
2022-10-16T15:27:41.200Z,20.17
2022-10-16T15:29:43.727Z,20.15
2022-10-16T15:31:48.420Z,20.14
2022-10-16T15:33:57.012Z,20.12
2022-10-16T15:35:59.607Z,20.10
2022-10-16T15:38:02.334Z,20.08
2022-10-16T15:40:05.593Z,20.06
2022-10-16T15:42:08.419Z,20.04
2022-10-16T15:44:11.401Z,20.02
2022-10-16T15:46:15.322Z,20.00
2022-10-16T15:48:17.925Z,19.99
2022-10-16T15:50:21.932Z,19.95
2022-10-16T15:52:24.840Z,19.93
2022-10-16T15:54:27.526Z,19.92
2022-10-16T15:56:31.576Z,19.89
2022-10-16T15:58:34.923Z,19.87
2022-10-16T16:00:40.277Z,19.85
2022-10-16T16:02:44.388Z,19.82
2022-10-16T16:04:46.959Z,19.79
2022-10-16T16:06:50.881Z,19.76
2022-10-16T16:08:53.652Z,19.73
2022-10-16T16:11:00.518Z,19.69
2022-10-16T16:13:03.096Z,19.67
2022-10-16T16:15:06.819Z,19.65
2022-10-16T16:17:09.386Z,19.63
2022-10-16T16:19:12.264Z,19.61
2022-10-16T16:21:15.197Z,19.58
2022-10-16T16:23:20.041Z,19.58
2022-10-16T16:25:22.688Z,19.58
2022-10-16T16:27:26.272Z,19.56
2022-10-16T16:29:29.351Z,19.55
2022-10-16T16:31:33.512Z,19.53
2022-10-16T16:33:36.359Z,19.50
2022-10-16T16:35:38.985Z,19.47
2022-10-16T16:37:41.553Z,19.45
2022-10-16T16:39:45.491Z,19.42
2022-10-16T16:41:48.166Z,19.42
2022-10-16T16:43:52.192Z,19.37
2022-10-16T16:45:56.188Z,19.32
2022-10-16T16:47:58.761Z,19.26
2022-10-16T16:50:05.722Z,19.20
2022-10-16T16:52:08.613Z,19.14
2022-10-16T16:54:13.647Z,19.11
2022-10-16T16:56:18.595Z,19.07
2022-10-16T16:58:21.187Z,19.04
2022-10-16T17:00:23.749Z,18.99
2022-10-16T17:02:26.599Z,18.95
2022-10-16T17:04:29.412Z,18.91
2022-10-16T17:06:32.073Z,18.87
2022-10-16T17:08:34.796Z,18.81
2022-10-16T17:10:44.893Z,18.82
2022-10-16T17:12:48.883Z,18.78
2022-10-16T17:14:52.563Z,18.69
2022-10-16T17:16:55.264Z,18.67
2022-10-16T17:19:00.564Z,18.68
2022-10-16T17:21:04.280Z,18.67
2022-10-16T17:23:06.929Z,18.67
2022-10-16T17:25:10.122Z,18.63
2022-10-16T17:27:12.918Z,18.61
2022-10-16T17:29:18.078Z,18.58
2022-10-16T17:31:22.332Z,18.56
2022-10-16T17:33:25.365Z,18.59
2022-10-16T17:35:28.223Z,18.57
2022-10-16T17:37:30.811Z,18.56
2022-10-16T17:39:35.665Z,18.55
2022-10-16T17:41:38.749Z,18.56
2022-10-16T17:43:41.833Z,18.62
2022-10-16T17:45:45.875Z,18.60
2022-10-16T17:47:48.512Z,18.63
2022-10-16T17:49:51.396Z,18.69
2022-10-16T17:51:55.304Z,18.79
2022-10-16T17:53:59.294Z,18.72
2022-10-16T17:56:05.048Z,18.67
2022-10-16T17:58:08.057Z,18.69
2022-10-16T18:00:11.725Z,18.69
2022-10-16T18:02:16.333Z,18.66
2022-10-16T18:04:19.137Z,18.70
2022-10-16T18:06:23.367Z,18.69
2022-10-16T18:08:28.668Z,18.68
2022-10-16T18:10:31.553Z,18.68
2022-10-16T18:12:34.466Z,18.65
2022-10-16T18:14:37.079Z,18.62
2022-10-16T18:16:39.804Z,18.61
2022-10-16T18:18:45.701Z,18.59
2022-10-16T18:20:57.620Z,18.59
2022-10-16T18:23:00.201Z,18.59
2022-10-16T18:25:04.345Z,18.57
2022-10-16T18:27:07.318Z,18.55
2022-10-16T18:29:11.624Z,18.52
2022-10-16T18:31:15.895Z,18.49
2022-10-16T18:33:18.476Z,18.48
2022-10-16T18:35:22.423Z,18.46
2022-10-16T18:37:25.269Z,18.44
2022-10-16T18:39:28.221Z,18.42
2022-10-16T18:41:32.577Z,18.40
2022-10-16T18:43:35.866Z,18.38
2022-10-16T18:45:38.538Z,18.34
2022-10-16T18:47:41.101Z,18.29
2022-10-16T18:49:44.188Z,18.26
2022-10-16T18:51:48.635Z,18.25
2022-10-16T18:53:54.179Z,18.23
2022-10-16T18:55:56.924Z,18.22
2022-10-16T18:57:59.503Z,18.23
2022-10-16T19:00:02.072Z,18.23
2022-10-16T19:02:04.781Z,18.23
2022-10-16T19:04:09.470Z,18.22
2022-10-16T19:06:14.307Z,18.24
2022-10-16T19:08:18.195Z,18.22
2022-10-16T19:10:20.774Z,18.20
2022-10-16T19:12:23.345Z,18.19
2022-10-16T19:14:26.020Z,18.17
2022-10-16T19:16:31.071Z,18.17
2022-10-16T19:18:38.341Z,18.18
2022-10-16T19:20:40.896Z,18.17
2022-10-16T19:22:54.271Z,18.14
2022-10-16T19:24:58.238Z,18.12
2022-10-16T19:27:00.796Z,18.11
2022-10-16T19:29:05.507Z,18.09
2022-10-16T19:31:11.490Z,18.08
2022-10-16T19:33:14.118Z,18.04
2022-10-16T19:35:16.950Z,18.03
2022-10-16T19:37:25.671Z,18.03
2022-10-16T19:39:28.281Z,18.02
2022-10-16T19:41:32.659Z,18.01
2022-10-16T19:43:35.336Z,18.00
2022-10-16T19:45:38.116Z,17.99
2022-10-16T19:47:40.861Z,18.04
2022-10-16T19:49:44.890Z,18.06
2022-10-16T19:51:48.125Z,18.02
2022-10-16T19:53:56.147Z,17.98
2022-10-16T19:55:59.498Z,17.91
2022-10-16T19:58:03.424Z,17.89
2022-10-16T20:00:08.437Z,17.86
2022-10-16T20:02:12.266Z,17.86
2022-10-16T20:04:15.161Z,17.85
2022-10-16T20:06:18.743Z,17.83
2022-10-16T20:08:21.537Z,17.91
2022-10-16T20:10:25.131Z,18.03
2022-10-16T20:12:27.884Z,17.97
2022-10-16T20:14:31.893Z,17.96
2022-10-16T20:16:34.698Z,17.94
2022-10-16T20:18:37.531Z,17.94
2022-10-16T20:20:40.904Z,17.92
2022-10-16T20:22:43.533Z,17.90
2022-10-16T20:24:46.269Z,17.87
2022-10-16T20:26:49.915Z,17.90
2022-10-16T20:28:53.719Z,17.95
2022-10-16T20:30:58.073Z,17.92
2022-10-16T20:33:00.870Z,17.90
2022-10-16T20:35:07.082Z,17.92
2022-10-16T20:37:10.768Z,17.90
2022-10-16T20:39:14.662Z,17.91
2022-10-16T20:41:18.512Z,17.92
2022-10-16T20:43:21.376Z,17.88
2022-10-16T20:45:23.961Z,17.85
2022-10-16T20:47:28.226Z,17.83
2022-10-16T20:49:40.269Z,17.80
2022-10-16T20:51:43.955Z,17.77
2022-10-16T20:53:48.000Z,17.76
2022-10-16T20:55:50.676Z,17.76
2022-10-16T20:57:53.683Z,17.73
2022-10-16T20:59:56.337Z,17.71
2022-10-16T21:01:59.102Z,17.67
2022-10-16T21:04:05.907Z,17.63
2022-10-16T21:06:10.734Z,17.62
2022-10-16T21:08:13.367Z,17.65
2022-10-16T21:10:16.072Z,17.65
2022-10-16T21:12:18.771Z,17.63
2022-10-16T21:14:22.092Z,17.59
2022-10-16T21:16:25.042Z,17.56
2022-10-16T21:18:28.596Z,17.53
2022-10-16T21:20:32.667Z,17.52
2022-10-16T21:22:35.337Z,17.50
2022-10-16T21:24:39.859Z,17.48
2022-10-16T21:26:42.461Z,17.50
2022-10-16T21:28:45.214Z,17.47
2022-10-16T21:30:47.876Z,17.43
2022-10-16T21:32:50.454Z,17.43
2022-10-16T21:34:53.041Z,17.41
2022-10-16T21:36:56.969Z,17.40
2022-10-16T21:39:02.982Z,17.39
2022-10-16T21:41:13.469Z,17.35
2022-10-16T21:43:16.399Z,17.24
2022-10-16T21:45:19.015Z,17.21
2022-10-16T21:47:21.608Z,17.17
2022-10-16T21:49:24.574Z,17.13
2022-10-16T21:51:28.168Z,17.08
2022-10-16T21:53:32.154Z,17.08
2022-10-16T21:55:37.740Z,16.99
2022-10-16T21:57:40.388Z,16.92
2022-10-16T21:59:43.001Z,16.87
2022-10-16T22:01:45.658Z,16.79
2022-10-16T22:03:48.602Z,16.71
2022-10-16T22:05:51.923Z,16.63
2022-10-16T22:07:54.528Z,16.68
2022-10-16T22:09:58.444Z,16.61
2022-10-16T22:12:01.025Z,16.53
2022-10-16T22:14:05.168Z,16.52
2022-10-16T22:16:08.665Z,16.57
2022-10-16T22:18:11.272Z,16.50
2022-10-16T22:20:13.891Z,16.43
2022-10-16T22:22:16.518Z,16.38
2022-10-16T22:24:19.466Z,16.28
2022-10-16T22:26:23.529Z,16.22
2022-10-16T22:28:26.084Z,16.16
2022-10-16T22:30:28.677Z,16.15
2022-10-16T22:32:31.690Z,16.13
2022-10-16T22:34:34.252Z,16.10
2022-10-16T22:36:35.857Z,16.04
2022-10-16T22:38:38.459Z,15.99
2022-10-16T22:40:41.675Z,15.97
2022-10-16T22:42:45.694Z,15.96
2022-10-16T22:44:48.251Z,15.93
2022-10-16T22:46:50.835Z,15.93
2022-10-16T22:48:56.020Z,15.87
2022-10-16T22:50:58.783Z,15.81
2022-10-16T22:53:01.325Z,15.78
2022-10-16T22:55:04.492Z,15.80
2022-10-16T22:57:07.091Z,15.77
2022-10-16T22:59:11.432Z,15.74
2022-10-16T23:01:17.052Z,15.69
2022-10-16T23:03:19.964Z,15.65
2022-10-16T23:05:22.649Z,15.63
2022-10-16T23:07:25.313Z,15.59
2022-10-16T23:09:28.168Z,15.56
2022-10-16T23:11:31.276Z,15.55
2022-10-16T23:13:36.536Z,15.54
2022-10-16T23:15:42.139Z,15.55
2022-10-16T23:17:44.709Z,15.58
2022-10-16T23:19:47.753Z,15.57
2022-10-16T23:21:50.427Z,15.56
2022-10-16T23:23:54.311Z,15.55
2022-10-16T23:25:56.906Z,15.54
2022-10-16T23:27:59.541Z,15.53
2022-10-16T23:30:02.416Z,15.54
2022-10-16T23:32:06.412Z,15.53
2022-10-16T23:34:08.993Z,15.52
2022-10-16T23:36:13.370Z,15.54
2022-10-16T23:38:16.023Z,15.48
2022-10-16T23:40:18.990Z,15.47
2022-10-16T23:42:21.685Z,15.46
2022-10-16T23:44:24.262Z,15.46
2022-10-16T23:46:26.859Z,15.39
2022-10-16T23:48:31.207Z,15.39
2022-10-16T23:50:33.809Z,15.36
2022-10-16T23:52:36.420Z,15.37
2022-10-16T23:54:39.045Z,15.36
2022-10-16T23:56:41.607Z,15.36
2022-10-16T23:58:44.238Z,15.36
